sensor_id;sensor_type;location;lat;lon;timestamp;P1;durP1;ratioP1;P2;durP2;ratioP2
26062;SDS011;13837;48.562;12.108;2023-04-03T00:00:15;9.02;;;8.40;;
26062;SDS011;13837;48.562;12.108;2023-04-03T00:02:41;8.80;;;8.10;;
26062;SDS011;13837;48.562;12.108;2023-04-03T00:05:07;8.68;;;8.07;;
26062;SDS011;13837;48.562;12.108;2023-04-03T00:07:34;8.85;;;7.97;;
26062;SDS011;13837;48.562;12.108;2023-04-03T00:10:00;8.52;;;7.93;;
26062;SDS011;13837;48.562;12.108;2023-04-03T00:12:26;8.60;;;8.00;;
26062;SDS011;13837;48.562;12.108;2023-04-03T00:14:52;9.70;;;9.07;;
26062;SDS011;13837;48.562;12.108;2023-04-03T00:17:18;9.85;;;8.95;;
26062;SDS011;13837;48.562;12.108;2023-04-03T00:19:44;9.68;;;8.85;;
26062;SDS011;13837;48.562;12.108;2023-04-03T00:22:10;9.77;;;8.93;;
26062;SDS011;13837;48.562;12.108;2023-04-03T00:24:36;9.43;;;8.75;;
26062;SDS011;13837;48.562;12.108;2023-04-03T00:27:02;9.40;;;8.60;;
26062;SDS011;13837;48.562;12.108;2023-04-03T00:29:28;8.82;;;8.18;;
26062;SDS011;13837;48.562;12.108;2023-04-03T00:31:54;9.40;;;8.70;;
26062;SDS011;13837;48.562;12.108;2023-04-03T00:34:20;8.68;;;8.02;;
26062;SDS011;13837;48.562;12.108;2023-04-03T00:36:46;8.50;;;7.90;;
26062;SDS011;13837;48.562;12.108;2023-04-03T00:39:12;9.23;;;8.45;;
26062;SDS011;13837;48.562;12.108;2023-04-03T00:41:38;9.55;;;8.85;;
26062;SDS011;13837;48.562;12.108;2023-04-03T00:44:18;9.48;;;8.68;;
26062;SDS011;13837;48.562;12.108;2023-04-03T00:46:45;10.40;;;9.57;;
26062;SDS011;13837;48.562;12.108;2023-04-03T00:49:11;9.80;;;9.07;;
26062;SDS011;13837;48.562;12.108;2023-04-03T00:51:37;9.52;;;8.93;;
26062;SDS011;13837;48.562;12.108;2023-04-03T00:54:04;10.43;;;9.55;;
26062;SDS011;13837;48.562;12.108;2023-04-03T00:56:31;9.73;;;9.02;;
26062;SDS011;13837;48.562;12.108;2023-04-03T01:01:28;9.70;;;8.90;;
26062;SDS011;13837;48.562;12.108;2023-04-03T01:03:55;10.05;;;9.25;;
26062;SDS011;13837;48.562;12.108;2023-04-03T01:06:25;9.15;;;8.55;;
26062;SDS011;13837;48.562;12.108;2023-04-03T01:08:52;10.00;;;9.20;;
26062;SDS011;13837;48.562;12.108;2023-04-03T01:11:18;9.30;;;8.60;;
26062;SDS011;13837;48.562;12.108;2023-04-03T01:13:46;8.90;;;8.30;;
26062;SDS011;13837;48.562;12.108;2023-04-03T01:16:13;9.27;;;8.60;;
26062;SDS011;13837;48.562;12.108;2023-04-03T01:18:39;9.00;;;8.32;;
26062;SDS011;13837;48.562;12.108;2023-04-03T01:26:04;9.57;;;8.77;;
26062;SDS011;13837;48.562;12.108;2023-04-03T01:28:32;8.68;;;8.15;;
26062;SDS011;13837;48.562;12.108;2023-04-03T01:32:00;8.63;;;7.97;;
26062;SDS011;13837;48.562;12.108;2023-04-03T01:33:55;9.30;;;8.60;;
26062;SDS011;13837;48.562;12.108;2023-04-03T01:36:23;9.05;;;8.45;;
26062;SDS011;13837;48.562;12.108;2023-04-03T01:38:50;9.65;;;8.82;;
26062;SDS011;13837;48.562;12.108;2023-04-03T01:41:17;9.50;;;8.80;;
26062;SDS011;13837;48.562;12.108;2023-04-03T01:43:44;9.15;;;8.55;;
26062;SDS011;13837;48.562;12.108;2023-04-03T01:46:11;9.85;;;9.05;;
26062;SDS011;13837;48.562;12.108;2023-04-03T01:48:37;9.65;;;8.82;;
26062;SDS011;13837;48.562;12.108;2023-04-03T01:51:03;9.75;;;8.98;;
26062;SDS011;13837;48.562;12.108;2023-04-03T01:53:29;9.75;;;9.00;;
26062;SDS011;13837;48.562;12.108;2023-04-03T01:55:55;10.70;;;9.90;;
26062;SDS011;13837;48.562;12.108;2023-04-03T01:58:22;9.98;;;9.02;;
26062;SDS011;13837;48.562;12.108;2023-04-03T02:00:52;9.63;;;8.65;;
26062;SDS011;13837;48.562;12.108;2023-04-03T02:03:18;10.23;;;9.52;;
26062;SDS011;13837;48.562;12.108;2023-04-03T02:05:45;10.45;;;9.75;;
26062;SDS011;13837;48.562;12.108;2023-04-03T02:08:11;9.98;;;9.20;;
26062;SDS011;13837;48.562;12.108;2023-04-03T02:10:38;9.43;;;8.82;;
26062;SDS011;13837;48.562;12.108;2023-04-03T02:13:05;10.10;;;9.35;;
26062;SDS011;13837;48.562;12.108;2023-04-03T02:15:31;9.02;;;8.43;;
26062;SDS011;13837;48.562;12.108;2023-04-03T02:17:57;10.30;;;9.50;;
26062;SDS011;13837;48.562;12.108;2023-04-03T02:20:23;9.40;;;8.60;;
26062;SDS011;13837;48.562;12.108;2023-04-03T02:22:49;10.10;;;9.25;;
26062;SDS011;13837;48.562;12.108;2023-04-03T02:25:15;9.85;;;9.15;;
26062;SDS011;13837;48.562;12.108;2023-04-03T02:27:42;10.30;;;9.43;;
26062;SDS011;13837;48.562;12.108;2023-04-03T02:30:08;10.35;;;9.35;;
26062;SDS011;13837;48.562;12.108;2023-04-03T02:32:35;11.05;;;9.80;;
26062;SDS011;13837;48.562;12.108;2023-04-03T02:35:02;9.90;;;9.20;;
26062;SDS011;13837;48.562;12.108;2023-04-03T02:37:28;11.00;;;10.20;;
26062;SDS011;13837;48.562;12.108;2023-04-03T02:39:55;9.60;;;8.80;;
26062;SDS011;13837;48.562;12.108;2023-04-03T02:42:21;11.27;;;10.32;;
26062;SDS011;13837;48.562;12.108;2023-04-03T02:44:47;9.55;;;8.90;;
26062;SDS011;13837;48.562;12.108;2023-04-03T02:47:13;10.07;;;9.38;;
26062;SDS011;13837;48.562;12.108;2023-04-03T02:49:39;10.88;;;10.07;;
26062;SDS011;13837;48.562;12.108;2023-04-03T02:52:05;10.90;;;10.10;;
26062;SDS011;13837;48.562;12.108;2023-04-03T02:54:31;10.32;;;9.55;;
26062;SDS011;13837;48.562;12.108;2023-04-03T02:57:02;11.23;;;10.35;;
26062;SDS011;13837;48.562;12.108;2023-04-03T02:59:28;11.30;;;10.27;;
26062;SDS011;13837;48.562;12.108;2023-04-03T03:01:54;9.82;;;9.02;;
26062;SDS011;13837;48.562;12.108;2023-04-03T03:04:21;9.75;;;9.15;;
26062;SDS011;13837;48.562;12.108;2023-04-03T03:06:47;10.43;;;9.73;;
26062;SDS011;13837;48.562;12.108;2023-04-03T03:09:14;10.30;;;9.60;;
26062;SDS011;13837;48.562;12.108;2023-04-03T03:11:41;10.20;;;9.40;;
26062;SDS011;13837;48.562;12.108;2023-04-03T03:14:07;9.93;;;9.13;;
26062;SDS011;13837;48.562;12.108;2023-04-03T03:16:33;10.38;;;9.57;;
26062;SDS011;13837;48.562;12.108;2023-04-03T03:19:00;10.00;;;9.10;;
26062;SDS011;13837;48.562;12.108;2023-04-03T03:21:26;11.18;;;9.57;;
26062;SDS011;13837;48.562;12.108;2023-04-03T03:23:52;10.73;;;9.82;;
26062;SDS011;13837;48.562;12.108;2023-04-03T03:26:18;10.88;;;10.00;;
26062;SDS011;13837;48.562;12.108;2023-04-03T03:28:44;10.05;;;9.15;;
26062;SDS011;13837;48.562;12.108;2023-04-03T03:31:11;10.98;;;10.18;;
26062;SDS011;13837;48.562;12.108;2023-04-03T03:33:38;10.77;;;9.88;;
26062;SDS011;13837;48.562;12.108;2023-04-03T03:36:04;11.07;;;10.10;;
26062;SDS011;13837;48.562;12.108;2023-04-03T03:38:31;11.90;;;10.73;;
26062;SDS011;13837;48.562;12.108;2023-04-03T03:40:58;12.18;;;11.27;;
26062;SDS011;13837;48.562;12.108;2023-04-03T03:43:24;11.52;;;10.63;;
26062;SDS011;13837;48.562;12.108;2023-04-03T03:45:52;10.90;;;10.10;;
26062;SDS011;13837;48.562;12.108;2023-04-03T03:48:19;12.20;;;11.13;;
26062;SDS011;13837;48.562;12.108;2023-04-03T03:50:46;11.85;;;10.80;;
26062;SDS011;13837;48.562;12.108;2023-04-03T03:53:12;11.77;;;10.77;;
26062;SDS011;13837;48.562;12.108;2023-04-03T03:55:39;12.25;;;11.25;;
26062;SDS011;13837;48.562;12.108;2023-04-03T03:58:05;11.50;;;10.60;;
26062;SDS011;13837;48.562;12.108;2023-04-03T04:00:32;11.88;;;10.90;;
26062;SDS011;13837;48.562;12.108;2023-04-03T04:02:59;12.68;;;11.40;;
26062;SDS011;13837;48.562;12.108;2023-04-03T04:05:26;12.90;;;11.65;;
26062;SDS011;13837;48.562;12.108;2023-04-03T04:07:53;12.07;;;11.07;;
26062;SDS011;13837;48.562;12.108;2023-04-03T04:10:20;13.02;;;11.73;;
26062;SDS011;13837;48.562;12.108;2023-04-03T04:12:46;12.73;;;11.68;;
26062;SDS011;13837;48.562;12.108;2023-04-03T04:15:14;13.65;;;12.38;;
26062;SDS011;13837;48.562;12.108;2023-04-03T04:17:40;12.25;;;11.15;;
26062;SDS011;13837;48.562;12.108;2023-04-03T04:20:10;13.02;;;11.77;;
26062;SDS011;13837;48.562;12.108;2023-04-03T04:22:37;12.30;;;11.27;;
26062;SDS011;13837;48.562;12.108;2023-04-03T04:25:04;12.27;;;11.25;;
26062;SDS011;13837;48.562;12.108;2023-04-03T04:27:31;12.80;;;11.60;;
26062;SDS011;13837;48.562;12.108;2023-04-03T04:29:57;13.32;;;11.68;;
26062;SDS011;13837;48.562;12.108;2023-04-03T04:32:23;12.00;;;10.90;;
26062;SDS011;13837;48.562;12.108;2023-04-03T04:34:50;12.75;;;11.60;;
26062;SDS011;13837;48.562;12.108;2023-04-03T04:37:16;13.63;;;12.40;;
26062;SDS011;13837;48.562;12.108;2023-04-03T04:39:42;13.27;;;12.00;;
26062;SDS011;13837;48.562;12.108;2023-04-03T04:42:09;13.70;;;12.50;;
26062;SDS011;13837;48.562;12.108;2023-04-03T04:47:04;12.23;;;11.13;;
26062;SDS011;13837;48.562;12.108;2023-04-03T04:49:31;15.40;;;13.93;;
26062;SDS011;13837;48.562;12.108;2023-04-03T04:51:57;13.60;;;12.40;;
26062;SDS011;13837;48.562;12.108;2023-04-03T04:54:28;11.00;;;9.57;;
26062;SDS011;13837;48.562;12.108;2023-04-03T04:56:54;13.65;;;11.05;;
26062;SDS011;13837;48.562;12.108;2023-04-03T04:59:20;13.80;;;11.00;;
26062;SDS011;13837;48.562;12.108;2023-04-03T05:01:47;14.75;;;11.65;;
26062;SDS011;13837;48.562;12.108;2023-04-03T05:04:15;12.60;;;11.38;;
26062;SDS011;13837;48.562;12.108;2023-04-03T05:06:44;15.68;;;12.68;;
26062;SDS011;13837;48.562;12.108;2023-04-03T05:09:15;13.45;;;12.10;;
26062;SDS011;13837;48.562;12.108;2023-04-03T05:11:43;13.30;;;12.02;;
26062;SDS011;13837;48.562;12.108;2023-04-03T05:14:10;14.25;;;12.60;;
26062;SDS011;13837;48.562;12.108;2023-04-03T05:16:36;13.18;;;11.80;;
26062;SDS011;13837;48.562;12.108;2023-04-03T05:19:02;14.80;;;13.23;;
26062;SDS011;13837;48.562;12.108;2023-04-03T05:21:30;13.65;;;12.45;;
26062;SDS011;13837;48.562;12.108;2023-04-03T05:23:58;16.42;;;12.50;;
26062;SDS011;13837;48.562;12.108;2023-04-03T05:26:28;14.75;;;13.25;;
26062;SDS011;13837;48.562;12.108;2023-04-03T05:28:55;14.48;;;12.85;;
26062;SDS011;13837;48.562;12.108;2023-04-03T05:31:21;14.55;;;12.48;;
26062;SDS011;13837;48.562;12.108;2023-04-03T05:33:48;14.63;;;13.20;;
26062;SDS011;13837;48.562;12.108;2023-04-03T05:36:16;15.67;;;13.57;;
26062;SDS011;13837;48.562;12.108;2023-04-03T05:41:12;14.48;;;13.18;;
26062;SDS011;13837;48.562;12.108;2023-04-03T05:43:39;13.18;;;11.95;;
26062;SDS011;13837;48.562;12.108;2023-04-03T05:46:09;14.00;;;12.60;;
26062;SDS011;13837;48.562;12.108;2023-04-03T05:48:35;15.35;;;13.80;;
26062;SDS011;13837;48.562;12.108;2023-04-03T05:51:02;14.38;;;12.70;;
26062;SDS011;13837;48.562;12.108;2023-04-03T05:53:29;14.75;;;12.90;;
26062;SDS011;13837;48.562;12.108;2023-04-03T05:56:00;14.45;;;13.02;;
26062;SDS011;13837;48.562;12.108;2023-04-03T05:58:30;13.57;;;12.23;;
26062;SDS011;13837;48.562;12.108;2023-04-03T06:00:56;13.90;;;12.60;;
26062;SDS011;13837;48.562;12.108;2023-04-03T06:03:22;14.40;;;13.10;;
26062;SDS011;13837;48.562;12.108;2023-04-03T06:05:48;18.02;;;13.98;;
26062;SDS011;13837;48.562;12.108;2023-04-03T06:08:14;14.30;;;12.82;;
26062;SDS011;13837;48.562;12.108;2023-04-03T06:10:40;15.52;;;12.75;;
26062;SDS011;13837;48.562;12.108;2023-04-03T06:13:06;13.68;;;12.30;;
26062;SDS011;13837;48.562;12.108;2023-04-03T06:15:33;14.23;;;12.02;;
26062;SDS011;13837;48.562;12.108;2023-04-03T06:17:59;12.90;;;11.80;;
26062;SDS011;13837;48.562;12.108;2023-04-03T06:20:26;13.88;;;12.25;;
26062;SDS011;13837;48.562;12.108;2023-04-03T06:22:53;15.82;;;12.98;;
26062;SDS011;13837;48.562;12.108;2023-04-03T06:25:19;16.02;;;12.57;;
26062;SDS011;13837;48.562;12.108;2023-04-03T06:27:46;12.68;;;11.35;;
26062;SDS011;13837;48.562;12.108;2023-04-03T06:30:12;12.65;;;11.45;;
26062;SDS011;13837;48.562;12.108;2023-04-03T06:32:38;15.50;;;12.65;;
26062;SDS011;13837;48.562;12.108;2023-04-03T06:35:04;16.08;;;13.20;;
26062;SDS011;13837;48.562;12.108;2023-04-03T06:37:31;13.60;;;11.80;;
26062;SDS011;13837;48.562;12.108;2023-04-03T06:39:58;12.50;;;11.07;;
26062;SDS011;13837;48.562;12.108;2023-04-03T06:42:25;12.95;;;11.65;;
26062;SDS011;13837;48.562;12.108;2023-04-03T06:44:58;12.63;;;11.60;;
26062;SDS011;13837;48.562;12.108;2023-04-03T06:47:25;14.48;;;12.32;;
26062;SDS011;13837;48.562;12.108;2023-04-03T06:49:51;19.02;;;15.13;;
26062;SDS011;13837;48.562;12.108;2023-04-03T06:52:17;12.93;;;11.63;;
26062;SDS011;13837;48.562;12.108;2023-04-03T06:54:43;12.85;;;11.63;;
26062;SDS011;13837;48.562;12.108;2023-04-03T06:57:11;12.90;;;11.65;;
26062;SDS011;13837;48.562;12.108;2023-04-03T06:59:37;13.55;;;11.98;;
26062;SDS011;13837;48.562;12.108;2023-04-03T07:02:03;13.52;;;11.07;;
26062;SDS011;13837;48.562;12.108;2023-04-03T07:04:29;12.70;;;11.02;;
26062;SDS011;13837;48.562;12.108;2023-04-03T07:06:55;12.70;;;11.40;;
26062;SDS011;13837;48.562;12.108;2023-04-03T07:09:21;14.25;;;11.80;;
26062;SDS011;13837;48.562;12.108;2023-04-03T07:11:47;12.85;;;11.50;;
26062;SDS011;13837;48.562;12.108;2023-04-03T07:14:13;12.45;;;11.25;;
26062;SDS011;13837;48.562;12.108;2023-04-03T07:16:39;13.32;;;11.82;;
26062;SDS011;13837;48.562;12.108;2023-04-03T07:19:05;12.48;;;11.27;;
26062;SDS011;13837;48.562;12.108;2023-04-03T07:21:33;13.32;;;10.82;;
26062;SDS011;13837;48.562;12.108;2023-04-03T07:23:59;11.95;;;10.95;;
26062;SDS011;13837;48.562;12.108;2023-04-03T07:26:26;14.95;;;11.43;;
26062;SDS011;13837;48.562;12.108;2023-04-03T07:28:52;12.20;;;11.10;;
26062;SDS011;13837;48.562;12.108;2023-04-03T07:31:18;12.80;;;11.48;;
26062;SDS011;13837;48.562;12.108;2023-04-03T07:33:44;12.32;;;11.05;;
26062;SDS011;13837;48.562;12.108;2023-04-03T07:36:11;13.18;;;11.88;;
26062;SDS011;13837;48.562;12.108;2023-04-03T07:38:39;12.60;;;11.15;;
26062;SDS011;13837;48.562;12.108;2023-04-03T07:41:06;12.05;;;10.95;;
26062;SDS011;13837;48.562;12.108;2023-04-03T07:43:32;12.68;;;11.48;;
26062;SDS011;13837;48.562;12.108;2023-04-03T07:45:59;11.45;;;10.30;;
26062;SDS011;13837;48.562;12.108;2023-04-03T07:48:26;14.20;;;10.23;;
26062;SDS011;13837;48.562;12.108;2023-04-03T07:50:52;11.82;;;9.90;;
26062;SDS011;13837;48.562;12.108;2023-04-03T07:53:18;9.93;;;9.00;;
26062;SDS011;13837;48.562;12.108;2023-04-03T07:55:48;11.18;;;10.13;;
26062;SDS011;13837;48.562;12.108;2023-04-03T07:58:17;10.23;;;9.32;;
26062;SDS011;13837;48.562;12.108;2023-04-03T08:00:43;10.25;;;9.20;;
26062;SDS011;13837;48.562;12.108;2023-04-03T08:03:10;9.35;;;8.45;;
26062;SDS011;13837;48.562;12.108;2023-04-03T08:05:40;10.13;;;8.52;;
26062;SDS011;13837;48.562;12.108;2023-04-03T08:08:06;9.02;;;8.27;;
26062;SDS011;13837;48.562;12.108;2023-04-03T08:10:33;8.32;;;7.53;;
26062;SDS011;13837;48.562;12.108;2023-04-03T08:12:59;9.80;;;8.80;;
26062;SDS011;13837;48.562;12.108;2023-04-03T08:15:26;24.50;;;16.40;;
26062;SDS011;13837;48.562;12.108;2023-04-03T08:17:52;114.22;;;50.45;;
26062;SDS011;13837;48.562;12.108;2023-04-03T08:20:18;72.50;;;30.17;;
26062;SDS011;13837;48.562;12.108;2023-04-03T08:22:44;82.65;;;41.03;;
26062;SDS011;13837;48.562;12.108;2023-04-03T08:25:10;52.70;;;35.53;;
26062;SDS011;13837;48.562;12.108;2023-04-03T08:27:36;11.50;;;10.50;;
26062;SDS011;13837;48.562;12.108;2023-04-03T08:30:03;8.40;;;7.60;;
26062;SDS011;13837;48.562;12.108;2023-04-03T08:32:29;8.85;;;6.78;;
26062;SDS011;13837;48.562;12.108;2023-04-03T08:34:55;6.93;;;6.32;;
26062;SDS011;13837;48.562;12.108;2023-04-03T08:37:21;7.68;;;6.88;;
26062;SDS011;13837;48.562;12.108;2023-04-03T08:39:47;8.27;;;6.13;;
26062;SDS011;13837;48.562;12.108;2023-04-03T08:49:58;6.95;;;6.30;;
26062;SDS011;13837;48.562;12.108;2023-04-03T08:54:57;7.88;;;6.60;;
26062;SDS011;13837;48.562;12.108;2023-04-03T08:57:47;10.18;;;7.72;;
26062;SDS011;13837;48.562;12.108;2023-04-03T09:02:41;7.05;;;6.13;;
26062;SDS011;13837;48.562;12.108;2023-04-03T09:05:13;6.17;;;5.83;;
26062;SDS011;13837;48.562;12.108;2023-04-03T09:07:42;5.82;;;5.32;;
26062;SDS011;13837;48.562;12.108;2023-04-03T09:10:13;5.97;;;5.55;;
26062;SDS011;13837;48.562;12.108;2023-04-03T09:12:44;7.43;;;6.82;;
26062;SDS011;13837;48.562;12.108;2023-04-03T09:15:16;7.40;;;6.75;;
26062;SDS011;13837;48.562;12.108;2023-04-03T09:22:36;5.53;;;5.03;;
26062;SDS011;13837;48.562;12.108;2023-04-03T09:25:10;5.25;;;4.88;;
26062;SDS011;13837;48.562;12.108;2023-04-03T09:27:37;5.43;;;4.50;;
26062;SDS011;13837;48.562;12.108;2023-04-03T09:30:03;4.80;;;4.50;;
26062;SDS011;13837;48.562;12.108;2023-04-03T09:32:33;5.15;;;4.80;;
26062;SDS011;13837;48.562;12.108;2023-04-03T09:35:03;7.43;;;4.60;;
26062;SDS011;13837;48.562;12.108;2023-04-03T09:37:35;4.80;;;4.50;;
26062;SDS011;13837;48.562;12.108;2023-04-03T09:40:02;5.47;;;5.00;;
26062;SDS011;13837;48.562;12.108;2023-04-03T09:42:29;5.55;;;4.63;;
26062;SDS011;13837;48.562;12.108;2023-04-03T09:44:59;5.00;;;4.38;;
26062;SDS011;13837;48.562;12.108;2023-04-03T09:47:33;4.70;;;4.30;;
26062;SDS011;13837;48.562;12.108;2023-04-03T09:52:39;5.65;;;4.10;;
26062;SDS011;13837;48.562;12.108;2023-04-03T09:57:52;4.95;;;4.45;;
26062;SDS011;13837;48.562;12.108;2023-04-03T10:00:37;4.80;;;4.40;;
26062;SDS011;13837;48.562;12.108;2023-04-03T10:03:04;4.97;;;4.63;;
26062;SDS011;13837;48.562;12.108;2023-04-03T10:05:37;4.72;;;4.43;;
26062;SDS011;13837;48.562;12.108;2023-04-03T10:08:11;5.13;;;4.72;;
26062;SDS011;13837;48.562;12.108;2023-04-03T10:10:46;5.43;;;5.03;;
26062;SDS011;13837;48.562;12.108;2023-04-03T10:13:13;5.32;;;4.20;;
26062;SDS011;13837;48.562;12.108;2023-04-03T10:15:46;6.80;;;5.22;;
26062;SDS011;13837;48.562;12.108;2023-04-03T10:18:19;5.15;;;4.75;;
26062;SDS011;13837;48.562;12.108;2023-04-03T10:20:48;5.22;;;4.85;;
26062;SDS011;13837;48.562;12.108;2023-04-03T10:23:19;5.57;;;5.07;;
26062;SDS011;13837;48.562;12.108;2023-04-03T10:31:42;5.00;;;4.63;;
26062;SDS011;13837;48.562;12.108;2023-04-03T10:37:10;5.90;;;5.40;;
26062;SDS011;13837;48.562;12.108;2023-04-03T10:41:46;4.18;;;3.88;;
26062;SDS011;13837;48.562;12.108;2023-04-03T10:47:12;4.47;;;3.60;;
26062;SDS011;13837;48.562;12.108;2023-04-03T10:55:08;3.50;;;3.30;;
26062;SDS011;13837;48.562;12.108;2023-04-03T10:57:36;3.75;;;2.97;;
26062;SDS011;13837;48.562;12.108;2023-04-03T11:00:04;3.38;;;3.15;;
26062;SDS011;13837;48.562;12.108;2023-04-03T11:02:39;6.53;;;3.40;;
26062;SDS011;13837;48.562;12.108;2023-04-03T11:05:16;2.95;;;2.60;;
26062;SDS011;13837;48.562;12.108;2023-04-03T11:07:45;3.20;;;2.90;;
26062;SDS011;13837;48.562;12.108;2023-04-03T11:13:02;5.20;;;3.60;;
26062;SDS011;13837;48.562;12.108;2023-04-03T11:15:32;3.90;;;3.60;;
26062;SDS011;13837;48.562;12.108;2023-04-03T11:18:13;3.17;;;2.88;;
26062;SDS011;13837;48.562;12.108;2023-04-03T11:20:41;3.78;;;3.40;;
26062;SDS011;13837;48.562;12.108;2023-04-03T11:23:26;3.45;;;3.25;;
26062;SDS011;13837;48.562;12.108;2023-04-03T11:25:57;3.67;;;3.17;;
26062;SDS011;13837;48.562;12.108;2023-04-03T11:28:25;4.00;;;3.70;;
26062;SDS011;13837;48.562;12.108;2023-04-03T11:30:55;4.63;;;3.53;;
26062;SDS011;13837;48.562;12.108;2023-04-03T11:35:55;3.83;;;3.53;;
26062;SDS011;13837;48.562;12.108;2023-04-03T11:38:24;3.75;;;3.30;;
26062;SDS011;13837;48.562;12.108;2023-04-03T11:40:51;4.75;;;3.80;;
26062;SDS011;13837;48.562;12.108;2023-04-03T11:50:53;4.20;;;3.47;;
26062;SDS011;13837;48.562;12.108;2023-04-03T11:58:23;8.57;;;4.97;;
26062;SDS011;13837;48.562;12.108;2023-04-03T12:05:49;4.75;;;4.25;;
26062;SDS011;13837;48.562;12.108;2023-04-03T12:16:06;4.35;;;3.83;;
26062;SDS011;13837;48.562;12.108;2023-04-03T12:21:14;4.72;;;4.05;;
26062;SDS011;13837;48.562;12.108;2023-04-03T12:26:20;4.53;;;3.63;;
26062;SDS011;13837;48.562;12.108;2023-04-03T12:28:46;3.95;;;3.65;;
26062;SDS011;13837;48.562;12.108;2023-04-03T12:31:13;3.47;;;3.17;;
26062;SDS011;13837;48.562;12.108;2023-04-03T12:36:08;3.53;;;2.80;;
26062;SDS011;13837;48.562;12.108;2023-04-03T12:38:41;3.13;;;2.92;;
26062;SDS011;13837;48.562;12.108;2023-04-03T12:41:19;3.70;;;3.10;;
26062;SDS011;13837;48.562;12.108;2023-04-03T12:46:14;2.92;;;2.83;;
26062;SDS011;13837;48.562;12.108;2023-04-03T12:51:14;4.18;;;3.78;;
26062;SDS011;13837;48.562;12.108;2023-04-03T12:53:41;3.60;;;3.40;;
26062;SDS011;13837;48.562;12.108;2023-04-03T12:56:22;3.30;;;3.10;;
26062;SDS011;13837;48.562;12.108;2023-04-03T12:58:49;3.53;;;3.22;;
26062;SDS011;13837;48.562;12.108;2023-04-03T13:01:16;3.80;;;3.50;;
26062;SDS011;13837;48.562;12.108;2023-04-03T13:03:51;3.67;;;3.15;;
26062;SDS011;13837;48.562;12.108;2023-04-03T13:06:19;3.80;;;3.45;;
26062;SDS011;13837;48.562;12.108;2023-04-03T13:08:52;3.60;;;3.40;;
26062;SDS011;13837;48.562;12.108;2023-04-03T13:11:19;3.60;;;3.40;;
26062;SDS011;13837;48.562;12.108;2023-04-03T13:13:56;4.55;;;3.60;;
26062;SDS011;13837;48.562;12.108;2023-04-03T13:16:22;4.07;;;3.63;;
26062;SDS011;13837;48.562;12.108;2023-04-03T13:18:52;5.80;;;4.15;;
26062;SDS011;13837;48.562;12.108;2023-04-03T13:21:20;3.58;;;3.33;;
26062;SDS011;13837;48.562;12.108;2023-04-03T13:23:48;4.88;;;3.60;;
26062;SDS011;13837;48.562;12.108;2023-04-03T13:26:17;3.80;;;3.50;;
26062;SDS011;13837;48.562;12.108;2023-04-03T13:28:44;4.68;;;3.95;;
26062;SDS011;13837;48.562;12.108;2023-04-03T13:31:19;6.53;;;3.75;;
26062;SDS011;13837;48.562;12.108;2023-04-03T13:36:45;3.33;;;3.10;;
26062;SDS011;13837;48.562;12.108;2023-04-03T13:39:21;4.20;;;3.90;;
26062;SDS011;13837;48.562;12.108;2023-04-03T13:41:49;3.40;;;3.20;;
26062;SDS011;13837;48.562;12.108;2023-04-03T13:46:48;3.83;;;3.53;;
26062;SDS011;13837;48.562;12.108;2023-04-03T13:49:34;4.30;;;3.58;;
26062;SDS011;13837;48.562;12.108;2023-04-03T13:52:47;4.57;;;3.70;;
26062;SDS011;13837;48.562;12.108;2023-04-03T13:54:47;3.83;;;3.60;;
26062;SDS011;13837;48.562;12.108;2023-04-03T13:57:17;3.72;;;3.50;;
26062;SDS011;13837;48.562;12.108;2023-04-03T13:59:43;4.28;;;3.97;;
26062;SDS011;13837;48.562;12.108;2023-04-03T14:04:47;6.30;;;3.83;;
26062;SDS011;13837;48.562;12.108;2023-04-03T14:07:13;4.50;;;4.10;;
26062;SDS011;13837;48.562;12.108;2023-04-03T14:09:41;3.90;;;3.60;;
26062;SDS011;13837;48.562;12.108;2023-04-03T14:12:15;4.05;;;3.75;;
26062;SDS011;13837;48.562;12.108;2023-04-03T14:14:41;3.88;;;3.60;;
26062;SDS011;13837;48.562;12.108;2023-04-03T14:17:15;4.20;;;3.80;;
26062;SDS011;13837;48.562;12.108;2023-04-03T14:19:42;3.88;;;3.55;;
26062;SDS011;13837;48.562;12.108;2023-04-03T14:22:19;3.70;;;3.30;;
26062;SDS011;13837;48.562;12.108;2023-04-03T14:24:47;4.25;;;3.92;;
26062;SDS011;13837;48.562;12.108;2023-04-03T14:29:43;4.25;;;3.95;;
26062;SDS011;13837;48.562;12.108;2023-04-03T14:32:11;4.40;;;3.80;;
26062;SDS011;13837;48.562;12.108;2023-04-03T14:34:38;4.20;;;3.90;;
26062;SDS011;13837;48.562;12.108;2023-04-03T14:37:05;3.88;;;3.67;;
26062;SDS011;13837;48.562;12.108;2023-04-03T14:39:31;4.28;;;3.97;;
26062;SDS011;13837;48.562;12.108;2023-04-03T14:41:57;4.10;;;3.80;;
26062;SDS011;13837;48.562;12.108;2023-04-03T14:44:23;4.40;;;4.10;;
26062;SDS011;13837;48.562;12.108;2023-04-03T14:46:49;4.82;;;3.80;;
26062;SDS011;13837;48.562;12.108;2023-04-03T14:49:18;3.80;;;3.60;;
26062;SDS011;13837;48.562;12.108;2023-04-03T14:51:45;4.78;;;4.38;;
26062;SDS011;13837;48.562;12.108;2023-04-03T14:54:16;4.28;;;3.90;;
26062;SDS011;13837;48.562;12.108;2023-04-03T14:56:42;4.47;;;3.90;;
26062;SDS011;13837;48.562;12.108;2023-04-03T14:59:09;4.00;;;3.70;;
26062;SDS011;13837;48.562;12.108;2023-04-03T15:01:36;4.10;;;3.70;;
26062;SDS011;13837;48.562;12.108;2023-04-03T15:04:13;6.53;;;4.00;;
26062;SDS011;13837;48.562;12.108;2023-04-03T15:06:39;4.70;;;4.40;;
26062;SDS011;13837;48.562;12.108;2023-04-03T15:09:09;4.70;;;4.30;;
26062;SDS011;13837;48.562;12.108;2023-04-03T15:11:36;5.93;;;4.53;;
26062;SDS011;13837;48.562;12.108;2023-04-03T15:14:04;4.55;;;4.07;;
26062;SDS011;13837;48.562;12.108;2023-04-03T15:16:30;5.00;;;4.50;;
26062;SDS011;13837;48.562;12.108;2023-04-03T15:18:56;4.57;;;4.22;;
26062;SDS011;13837;48.562;12.108;2023-04-03T15:21:22;5.53;;;4.80;;
26062;SDS011;13837;48.562;12.108;2023-04-03T15:23:48;4.90;;;4.50;;
26062;SDS011;13837;48.562;12.108;2023-04-03T15:26:14;6.45;;;4.45;;
26062;SDS011;13837;48.562;12.108;2023-04-03T15:28:41;5.32;;;4.82;;
26062;SDS011;13837;48.562;12.108;2023-04-03T15:31:07;5.00;;;4.60;;
26062;SDS011;13837;48.562;12.108;2023-04-03T15:33:34;5.45;;;5.05;;
26062;SDS011;13837;48.562;12.108;2023-04-03T15:36:01;5.70;;;5.18;;
26062;SDS011;13837;48.562;12.108;2023-04-03T15:38:27;5.28;;;4.78;;
26062;SDS011;13837;48.562;12.108;2023-04-03T15:40:53;5.15;;;4.75;;
26062;SDS011;13837;48.562;12.108;2023-04-03T15:43:20;6.05;;;5.45;;
26062;SDS011;13837;48.562;12.108;2023-04-03T15:45:46;5.05;;;4.70;;
26062;SDS011;13837;48.562;12.108;2023-04-03T15:48:12;5.45;;;4.90;;
26062;SDS011;13837;48.562;12.108;2023-04-03T15:50:38;5.45;;;5.03;;
26062;SDS011;13837;48.562;12.108;2023-04-03T15:53:04;5.60;;;5.10;;
26062;SDS011;13837;48.562;12.108;2023-04-03T15:55:31;5.28;;;4.78;;
26062;SDS011;13837;48.562;12.108;2023-04-03T15:57:58;5.55;;;5.00;;
26062;SDS011;13837;48.562;12.108;2023-04-03T16:00:24;5.07;;;4.60;;
26062;SDS011;13837;48.562;12.108;2023-04-03T16:02:53;4.93;;;4.53;;
26062;SDS011;13837;48.562;12.108;2023-04-03T16:05:19;5.47;;;5.07;;
26062;SDS011;13837;48.562;12.108;2023-04-03T16:07:46;4.90;;;4.50;;
26062;SDS011;13837;48.562;12.108;2023-04-03T16:10:13;4.90;;;4.50;;
26062;SDS011;13837;48.562;12.108;2023-04-03T16:12:40;5.82;;;5.35;;
26062;SDS011;13837;48.562;12.108;2023-04-03T16:15:06;5.10;;;4.70;;
26062;SDS011;13837;48.562;12.108;2023-04-03T16:17:32;5.32;;;4.93;;